Judi M. — WCX8376 — position and weather

sailwx.info

Track history (hours):
 
Tides and Currents Weather Stations Pressure Air Temp Water Temp Dewpoint Dewpoint Depression Visibility Wind Speed Wind Dir Waves Ship Positions

Judi M.

Owner: MANKE TUG & BARGE CO INC, SHELTON, WA. More information available from US FCC via Universal Licensing System and Coast Guard Vessel Documentation Center.

Last reported at 2018-Apr-23 09:30 UTC. Time now 2018-Apr-23 09:49 UTC.
Position N 47°57' W 122°31'.

Length 29 m; draft 4 m.

Type: Tow > 200 m length. MMSI: 366740920.

Date/timePositionNaut miles runAvg speedWind from/ knotsBaromVisibWave heightAir tempDewpointWater temp
2018-Apr-23 09:30N 47°57' W 122°31'4 8.1
2018-Apr-23 09:00N 47°53' W 122°28'4 7.5
2018-Apr-23 08:30N 47°50' W 122°27'4 7.0
2018-Apr-23 08:00N 47°46' W 122°26'3 6.4
2018-Apr-23 07:30N 47°43' W 122°26'3 6.6
2018-Apr-23 07:00N 47°40' W 122°27'3 6.6
2018-Apr-23 06:30N 47°37' W 122°24'3 5.9
2018-Apr-23 06:00N 47°35' W 122°22'0 0.4
2018-Apr-23 05:30N 47°34' W 122°22'1 1.8
2018-Apr-23 05:00N 47°35' W 122°21'0 0.0
2018-Apr-23 04:30N 47°35' W 122°21'0 0.0
2018-Apr-23 04:00N 47°35' W 122°21'0 0.0
2018-Apr-23 03:30N 47°35' W 122°21'1 1.7
2018-Apr-23 03:00N 47°34' W 122°22'0 0.0
2018-Apr-23 02:30N 47°34' W 122°22'0 0.0
2018-Apr-23 02:00N 47°34' W 122°22'0 0.0
2018-Apr-23 01:30N 47°34' W 122°22'0 0.0
2018-Apr-23 01:00N 47°34' W 122°22'0 0.0
2018-Apr-23 00:30N 47°34' W 122°22'0 0.0
2018-Apr-23 00:00N 47°34' W 122°22'0 0.0
2018-Apr-22 23:30N 47°34' W 122°22'0 0.0
2018-Apr-22 23:00N 47°34' W 122°22'0 0.0
2018-Apr-22 22:30N 47°34' W 122°22'0 0.0
2018-Apr-22 22:00N 47°34' W 122°22'0 0.0
2018-Apr-22 21:30N 47°34' W 122°22'0 0.0
2018-Apr-22 21:00N 47°34' W 122°22'0 0.0
2018-Apr-22 20:30N 47°34' W 122°22'0 0.0
2018-Apr-22 20:00N 47°34' W 122°22'0 0.0
2018-Apr-22 19:31N 47°34' W 122°22'0 0.1
2018-Apr-22 19:00N 47°34' W 122°22'1 2.2
2018-Apr-22 18:31N 47°35' W 122°22'2 5.0
2018-Apr-22 18:01N 47°37' W 122°25'3 6.6
2018-Apr-22 17:31N 47°39' W 122°29'4 7.0
2018-Apr-22 17:00N 47°43' W 122°28'4 7.1
2018-Apr-22 16:30N 47°46' W 122°27'4 7.1
2018-Apr-22 16:01N 47°50' W 122°28'3 6.7
2018-Apr-22 15:30N 47°53' W 122°30'4 6.7
2018-Apr-22 14:59N 47°56' W 122°32'3 6.9
2018-Apr-22 14:29N 47°58' W 122°36'4 6.9
2018-Apr-22 13:57N 48°02' W 122°39'3 6.4
2018-Apr-22 13:27N 48°05' W 122°40'4 7.4
2018-Apr-22 12:58N 48°08' W 122°43'3 7.1
2018-Apr-22 12:29N 48°10' W 122°47'3 6.5
2018-Apr-22 11:59N 48°11' W 122°51'3 6.3
2018-Apr-22 11:30N 48°14' W 122°53'3 6.2
2018-Apr-22 10:58N 48°17' W 122°56'3 6.6
2018-Apr-22 10:29N 48°19' W 122°59'3 6.7
2018-Apr-22 10:00N 48°22' W 123°01'3 6.8
2018-Apr-22 09:31N 48°25' W 123°04'4 7.6
2018-Apr-22 09:00N 48°28' W 123°08'3 6.8
2018-Apr-22 08:31N 48°30' W 123°11'3 5.3
2018-Apr-22 08:00N 48°33' W 123°13'3 6.8
2018-Apr-22 07:31N 48°36' W 123°14'4 6.6
2018-Apr-22 06:58N 48°39' W 123°15'4 6.9
2018-Apr-22 06:24N 48°43' W 123°17'3 7.1
2018-Apr-22 06:00N 48°45' W 123°20'3 6.6
2018-Apr-22 05:31N 48°49' W 123°21'3 5.8
2018-Apr-22 05:00N 48°51' W 123°23'4 6.0
2018-Apr-22 04:18N 48°54' W 123°28'2 5.7
2018-Apr-22 03:54N 48°55' W 123°31'2 5.3
2018-Apr-22 03:29N 48°56' W 123°34'2 3.8
2018-Apr-22 03:01N 48°56' W 123°36'3 6.2
2018-Apr-22 02:31N 48°53' W 123°37'1 0.3
2018-Apr-21 22:17N 48°52' W 123°39'0 0.0
2018-Apr-21 22:01N 48°52' W 123°39'0 0.0
2018-Apr-21 20:11N 48°52' W 123°39'0 0.0
2018-Apr-21 19:59N 48°52' W 123°39'0 0.0
2018-Apr-21 19:29N 48°52' W 123°39'0 0.0
2018-Apr-21 19:00N 48°52' W 123°39'0 0.0
2018-Apr-21 18:28N 48°52' W 123°39'0 0.0
2018-Apr-21 17:53N 48°52' W 123°39'0 0.0
2018-Apr-21 17:31N 48°52' W 123°39'0 0.0
2018-Apr-21 17:00N 48°52' W 123°39'0 0.0
2018-Apr-21 16:31N 48°52' W 123°39'0 0.0
2018-Apr-21 16:01N 48°52' W 123°39'0 0.0
2018-Apr-21 15:31N 48°52' W 123°39'0 0.0
2018-Apr-21 15:00N 48°52' W 123°39'0 0.0
2018-Apr-21 14:31N 48°52' W 123°39'0 0.0
2018-Apr-21 14:00N 48°52' W 123°39'0 0.0
2018-Apr-21 13:31N 48°52' W 123°39'0 0.0
2018-Apr-21 13:01N 48°52' W 123°39'0 0.2
2018-Apr-21 12:28N 48°52' W 123°38'1 2.6
2018-Apr-21 12:01N 48°53' W 123°37'4 7.1
2018-Apr-21 11:30N 48°57' W 123°36'4 6.9
2018-Apr-21 10:57N 48°55' W 123°31'4 7.9
2018-Apr-21 10:27N 48°52' W 123°26'4 7.9
2018-Apr-21 10:00N 48°51' W 123°22'3 6.9
2018-Apr-21 09:30N 48°47' W 123°20'3 6.9
2018-Apr-21 09:00N 48°44' W 123°18'4 7.5
2018-Apr-21 08:31N 48°41' W 123°15'4 7.7
2018-Apr-21 08:00N 48°37' W 123°14'4 7.1
2018-Apr-21 07:30N 48°34' W 123°12'4 8.5
2018-Apr-21 07:00N 48°30' W 123°10'4 8.9
2018-Apr-21 06:31N 48°27' W 123°05'4 8.3
2018-Apr-21 05:59N 48°23' W 123°01'25 5.6
2018-Apr-21 01:30N 48°04' W 122°38'2 4.9
2018-Apr-21 01:00N 48°01' W 122°37'3 5.0
2018-Apr-21 00:30N 47°59' W 122°35'3 5.1
2018-Apr-21 00:00N 47°57' W 122°32'3 6.7
2018-Apr-20 23:30N 47°55' W 122°29'4 7.6
2018-Apr-20 23:00N 47°51' W 122°27'4 7.8
2018-Apr-20 22:31N 47°48' W 122°26'4 7.6
2018-Apr-20 22:01N 47°44' W 122°26'4 7.4
2018-Apr-20 21:30N 47°40' W 122°27'4 7.5
2018-Apr-20 21:00N 47°37' W 122°24'3 5.9
2018-Apr-20 20:30N 47°34' W 122°22'0 0.0
2018-Apr-20 20:01N 47°34' W 122°22'  
2018-Apr-18 10:35N 47°34' W 122°22'0 0.0
2018-Apr-18 10:30N 47°34' W 122°22'0 0.8
2018-Apr-18 10:00N 47°35' W 122°22'1 2.1
2018-Apr-18 09:30N 47°36' W 122°22'3 5.7
2018-Apr-18 09:00N 47°37' W 122°26'3 5.8
2018-Apr-18 08:30N 47°40' W 122°28'3 5.6
2018-Apr-18 08:00N 47°43' W 122°28'3 5.7
2018-Apr-18 07:30N 47°45' W 122°27'3 5.9
2018-Apr-18 07:00N 47°48' W 122°28'3 6.0
2018-Apr-18 06:30N 47°51' W 122°29'3 5.9
2018-Apr-18 06:00N 47°54' W 122°30'3 4.6
2018-Apr-18 05:27N 47°56' W 122°33'3 5.1
2018-Apr-18 04:57N 47°57' W 122°36'2 4.4
2018-Apr-18 04:30N 47°59' W 122°37'9 0.4
2018-Apr-17 08:07N 48°06' W 122°45'3 7.0
2018-Apr-17 07:41N 48°07' W 122°41'3 7.6
2018-Apr-17 07:17N 48°05' W 122°39'3 9.3
2018-Apr-17 06:54N 48°01' W 122°37'4 9.4
2018-Apr-17 06:30N 47°58' W 122°34'4 8.5
2018-Apr-17 06:00N 47°56' W 122°29'4 8.0
2018-Apr-17 05:30N 47°52' W 122°28'4 8.0
2018-Apr-17 05:00N 47°48' W 122°26'4 8.2
2018-Apr-17 04:30N 47°44' W 122°26'5 9.0
2018-Apr-17 04:00N 47°39' W 122°27'4 8.0
2018-Apr-17 03:30N 47°37' W 122°22'2 4.9
2018-Apr-17 03:00N 47°34' W 122°22'0 0.0
2018-Apr-17 02:30N 47°34' W 122°22'0 0.0
2018-Apr-17 02:00N 47°34' W 122°22'  
Track history (hours):
 
Tides and Currents Weather Stations Pressure Air Temp Water Temp Dewpoint Dewpoint Depression Visibility Wind Speed Wind Dir Waves Ship Positions

Judi M.

Owner: MANKE TUG & BARGE CO INC, SHELTON, WA. More information available from US FCC via Universal Licensing System and Coast Guard Vessel Documentation Center.

Last reported at 2018-Apr-23 09:30 UTC. Time now 2018-Apr-23 09:49 UTC.
Position N 47°57' W 122°31'.

Length 29 m; draft 4 m.

Type: Tow > 200 m length. MMSI: 366740920.

Date/timePositionNaut miles runAvg speedWind from/ knotsBaromVisibWave heightAir tempDewpointWater temp
2018-Apr-23 09:30N 47°57' W 122°31'4 8.1
2018-Apr-23 09:00N 47°53' W 122°28'4 7.5
2018-Apr-23 08:30N 47°50' W 122°27'4 7.0
2018-Apr-23 08:00N 47°46' W 122°26'3 6.4
2018-Apr-23 07:30N 47°43' W 122°26'3 6.6
2018-Apr-23 07:00N 47°40' W 122°27'3 6.6
2018-Apr-23 06:30N 47°37' W 122°24'3 5.9
2018-Apr-23 06:00N 47°35' W 122°22'0 0.4
2018-Apr-23 05:30N 47°34' W 122°22'1 1.8
2018-Apr-23 05:00N 47°35' W 122°21'0 0.0
2018-Apr-23 04:30N 47°35' W 122°21'0 0.0
2018-Apr-23 04:00N 47°35' W 122°21'0 0.0
2018-Apr-23 03:30N 47°35' W 122°21'1 1.7
2018-Apr-23 03:00N 47°34' W 122°22'0 0.0
2018-Apr-23 02:30N 47°34' W 122°22'0 0.0
2018-Apr-23 02:00N 47°34' W 122°22'0 0.0
2018-Apr-23 01:30N 47°34' W 122°22'0 0.0
2018-Apr-23 01:00N 47°34' W 122°22'0 0.0
2018-Apr-23 00:30N 47°34' W 122°22'0 0.0
2018-Apr-23 00:00N 47°34' W 122°22'0 0.0
2018-Apr-22 23:30N 47°34' W 122°22'0 0.0
2018-Apr-22 23:00N 47°34' W 122°22'0 0.0
2018-Apr-22 22:30N 47°34' W 122°22'0 0.0
2018-Apr-22 22:00N 47°34' W 122°22'0 0.0
2018-Apr-22 21:30N 47°34' W 122°22'0 0.0
2018-Apr-22 21:00N 47°34' W 122°22'0 0.0
2018-Apr-22 20:30N 47°34' W 122°22'0 0.0
2018-Apr-22 20:00N 47°34' W 122°22'0 0.0
2018-Apr-22 19:31N 47°34' W 122°22'0 0.1
2018-Apr-22 19:00N 47°34' W 122°22'1 2.2
2018-Apr-22 18:31N 47°35' W 122°22'2 5.0
2018-Apr-22 18:01N 47°37' W 122°25'3 6.6
2018-Apr-22 17:31N 47°39' W 122°29'4 7.0
2018-Apr-22 17:00N 47°43' W 122°28'4 7.1
2018-Apr-22 16:30N 47°46' W 122°27'4 7.1
2018-Apr-22 16:01N 47°50' W 122°28'3 6.7
2018-Apr-22 15:30N 47°53' W 122°30'4 6.7
2018-Apr-22 14:59N 47°56' W 122°32'3 6.9
2018-Apr-22 14:29N 47°58' W 122°36'4 6.9
2018-Apr-22 13:57N 48°02' W 122°39'3 6.4
2018-Apr-22 13:27N 48°05' W 122°40'4 7.4
2018-Apr-22 12:58N 48°08' W 122°43'3 7.1
2018-Apr-22 12:29N 48°10' W 122°47'3 6.5
2018-Apr-22 11:59N 48°11' W 122°51'3 6.3
2018-Apr-22 11:30N 48°14' W 122°53'3 6.2
2018-Apr-22 10:58N 48°17' W 122°56'3 6.6
2018-Apr-22 10:29N 48°19' W 122°59'3 6.7
2018-Apr-22 10:00N 48°22' W 123°01'3 6.8
2018-Apr-22 09:31N 48°25' W 123°04'4 7.6
2018-Apr-22 09:00N 48°28' W 123°08'3 6.8
2018-Apr-22 08:31N 48°30' W 123°11'3 5.3
2018-Apr-22 08:00N 48°33' W 123°13'3 6.8
2018-Apr-22 07:31N 48°36' W 123°14'4 6.6
2018-Apr-22 06:58N 48°39' W 123°15'4 6.9
2018-Apr-22 06:24N 48°43' W 123°17'3 7.1
2018-Apr-22 06:00N 48°45' W 123°20'3 6.6
2018-Apr-22 05:31N 48°49' W 123°21'3 5.8
2018-Apr-22 05:00N 48°51' W 123°23'4 6.0
2018-Apr-22 04:18N 48°54' W 123°28'2 5.7
2018-Apr-22 03:54N 48°55' W 123°31'2 5.3
2018-Apr-22 03:29N 48°56' W 123°34'2 3.8
2018-Apr-22 03:01N 48°56' W 123°36'3 6.2
2018-Apr-22 02:31N 48°53' W 123°37'1 0.3
2018-Apr-21 22:17N 48°52' W 123°39'0 0.0
2018-Apr-21 22:01N 48°52' W 123°39'0 0.0
2018-Apr-21 20:11N 48°52' W 123°39'0 0.0
2018-Apr-21 19:59N 48°52' W 123°39'0 0.0
2018-Apr-21 19:29N 48°52' W 123°39'0 0.0
2018-Apr-21 19:00N 48°52' W 123°39'0 0.0
2018-Apr-21 18:28N 48°52' W 123°39'0 0.0
2018-Apr-21 17:53N 48°52' W 123°39'0 0.0
2018-Apr-21 17:31N 48°52' W 123°39'0 0.0
2018-Apr-21 17:00N 48°52' W 123°39'0 0.0
2018-Apr-21 16:31N 48°52' W 123°39'0 0.0
2018-Apr-21 16:01N 48°52' W 123°39'0 0.0
2018-Apr-21 15:31N 48°52' W 123°39'0 0.0
2018-Apr-21 15:00N 48°52' W 123°39'0 0.0
2018-Apr-21 14:31N 48°52' W 123°39'0 0.0
2018-Apr-21 14:00N 48°52' W 123°39'0 0.0
2018-Apr-21 13:31N 48°52' W 123°39'0 0.0
2018-Apr-21 13:01N 48°52' W 123°39'0 0.2
2018-Apr-21 12:28N 48°52' W 123°38'1 2.6
2018-Apr-21 12:01N 48°53' W 123°37'4 7.1
2018-Apr-21 11:30N 48°57' W 123°36'4 6.9
2018-Apr-21 10:57N 48°55' W 123°31'4 7.9
2018-Apr-21 10:27N 48°52' W 123°26'4 7.9
2018-Apr-21 10:00N 48°51' W 123°22'3 6.9
2018-Apr-21 09:30N 48°47' W 123°20'3 6.9
2018-Apr-21 09:00N 48°44' W 123°18'4 7.5
2018-Apr-21 08:31N 48°41' W 123°15'4 7.7
2018-Apr-21 08:00N 48°37' W 123°14'4 7.1
2018-Apr-21 07:30N 48°34' W 123°12'4 8.5
2018-Apr-21 07:00N 48°30' W 123°10'4 8.9
2018-Apr-21 06:31N 48°27' W 123°05'4 8.3
2018-Apr-21 05:59N 48°23' W 123°01'25 5.6
2018-Apr-21 01:30N 48°04' W 122°38'2 4.9
2018-Apr-21 01:00N 48°01' W 122°37'3 5.0
2018-Apr-21 00:30N 47°59' W 122°35'3 5.1
2018-Apr-21 00:00N 47°57' W 122°32'3 6.7
2018-Apr-20 23:30N 47°55' W 122°29'4 7.6
2018-Apr-20 23:00N 47°51' W 122°27'4 7.8
2018-Apr-20 22:31N 47°48' W 122°26'4 7.6
2018-Apr-20 22:01N 47°44' W 122°26'4 7.4
2018-Apr-20 21:30N 47°40' W 122°27'4 7.5
2018-Apr-20 21:00N 47°37' W 122°24'3 5.9
2018-Apr-20 20:30N 47°34' W 122°22'0 0.0
2018-Apr-20 20:01N 47°34' W 122°22'  
2018-Apr-18 10:35N 47°34' W 122°22'0 0.0
2018-Apr-18 10:30N 47°34' W 122°22'0 0.8
2018-Apr-18 10:00N 47°35' W 122°22'1 2.1
2018-Apr-18 09:30N 47°36' W 122°22'3 5.7
2018-Apr-18 09:00N 47°37' W 122°26'3 5.8
2018-Apr-18 08:30N 47°40' W 122°28'3 5.6
2018-Apr-18 08:00N 47°43' W 122°28'3 5.7
2018-Apr-18 07:30N 47°45' W 122°27'3 5.9
2018-Apr-18 07:00N 47°48' W 122°28'3 6.0
2018-Apr-18 06:30N 47°51' W 122°29'3 5.9
2018-Apr-18 06:00N 47°54' W 122°30'3 4.6
2018-Apr-18 05:27N 47°56' W 122°33'3 5.1
2018-Apr-18 04:57N 47°57' W 122°36'2 4.4
2018-Apr-18 04:30N 47°59' W 122°37'9 0.4
2018-Apr-17 08:07N 48°06' W 122°45'3 7.0
2018-Apr-17 07:41N 48°07' W 122°41'3 7.6
2018-Apr-17 07:17N 48°05' W 122°39'3 9.3
2018-Apr-17 06:54N 48°01' W 122°37'4 9.4
2018-Apr-17 06:30N 47°58' W 122°34'4 8.5
2018-Apr-17 06:00N 47°56' W 122°29'4 8.0
2018-Apr-17 05:30N 47°52' W 122°28'4 8.0
2018-Apr-17 05:00N 47°48' W 122°26'4 8.2
2018-Apr-17 04:30N 47°44' W 122°26'5 9.0
2018-Apr-17 04:00N 47°39' W 122°27'4 8.0
2018-Apr-17 03:30N 47°37' W 122°22'2 4.9
2018-Apr-17 03:00N 47°34' W 122°22'0 0.0
2018-Apr-17 02:30N 47°34' W 122°22'0 0.0
2018-Apr-17 02:00N 47°34' W 122°22'  

Dump ship's entire track history